KMDW

Chicago Midway International Airport

Chicago, Illinois, USA
METAR KMDW 210353Z 00000KT 10SM -RA FEW065 SCT095 BKN120 OVC200 22/21 A2977 RMK AO2 LTG DSNT SE RAB09 SLP073 FRQ LTGICCG DSNT E CB DSNT E P0000 T02170206 $
Observed Flight Rules
Aug-21 @ 03:53 UTC (18 minutes ago) Visual Flight Rules
Visibility Clouds Conditions
10 miles
  • Few at 6,500' AGL
  • Scattered at 9,500' AGL
  • Broken at 12,000' AGL
  • Overcast at 20,000' AGL
  • Light Rain
Temperatures Readings Precipitation
Current 22°C / 72°F
Dewpoint 21°C / 70°F
Humidity 94%
Altimeter 29.77" Hg
Pressure 1007.3 hPa
Elevation 188
Current Rain 0.005
METAR KMDW 210353Z 00000KT 10SM -RA FEW065 SCT095 BKN120 OVC200 22/21 A2977 RMK AO2 LTG DSNT SE RAB09 SLP073 FRQ LTGICCG DSNT E CB DSNT E P0000 T02170206 $
Observed Flight Rules
Aug-21 @ 03:53 UTC
(18 minutes ago)
VFR
Clouds
  • Few at 6,500' AGL
  • Scattered at 9,500' AGL
  • Broken at 12,000' AGL
  • Overcast at 20,000' AGL
Conditions
  • Light Rain
Temperature Dewpoint
22°C / 72°F 21°C / 70°F
Humidity Altimeter Pressure
94% 29.77" Hg 1007.3 hPa
Current Rain
0.005